Sheffield, Texas
Current Conditions -  °F | °C
As of 1:55 PM on Sunday 21 Dec 2014 (Local Time) from KOZA Reporting Station
Clear Clear  
Wind Chill: 57°   Ceiling: Unl
Heat Index: 57°   Visibility: 10mi
Dew Point: 43°   Wind: 14mph
Humidity: 59%   Direction: 200°SSW
Pressure: 29.91"   Gusts: 20mph
Location:  30.69°N, 101.82°W
Report Text: KOZA 211955Z AUTO 20012G17KT 10SM CLR 14/06 A2991 RMK AO2
Loading
Personal Weather Stations






























Interactive Weather Map New forecast layout! Learn more

10-Day Weather Forecast

Advertisements
Track Severe Weather on mobile